Time;durP1;ratioP1;P1;durP2;ratioP2;P2;SDS_P1;SDS_P2;PMS_P1;PMS_P2;Temp;Humidity;BMP_temperature;BMP_pressure;BME280_temperature;BME280_humidity;BME280_pressure;Samples;Min_cycle;Max_cycle;Signal;HPM_P1;HPM_P2
2022/03/03 00:02:24;;;;;;;28.40;12.80;;;;;;;1.97;48.27;92656.06;4991178;28;20039;-88
2022/03/03 00:05:04;;;;;;;27.20;12.52;;;;;;;2.22;48.10;92703.03;4978096;28;20074;-89
2022/03/03 00:07:40;;;;;;;27.38;12.80;;;;;;;2.18;48.09;92693.38;4993032;28;20093;-88
2022/03/03 00:10:26;;;;;;;27.27;13.23;;;;;;;1.88;48.67;92651.25;4977588;28;20488;-90
2022/03/03 00:13:16;;;;;;;31.13;12.48;;;;;;;2.13;48.83;92688.13;5005047;28;20057;-89
2022/03/03 00:15:47;;;;;;;28.02;13.32;;;;;;;1.87;48.90;92646.31;4974051;28;20041;-89
2022/03/03 00:18:31;;;;;;;37.75;13.55;;;;;;;1.80;49.10;92643.06;4991581;28;20039;-89
2022/03/03 00:21:43;;;;;;;29.23;12.90;;;;;;;2.00;48.57;92671.09;5002246;28;20074;-88
2022/03/03 00:24:24;;;;;;;36.05;13.40;;;;;;;1.93;48.77;92668.63;4987995;28;20053;-89
2022/03/03 00:27:12;;;;;;;;;;;;;;;;;;;;;
2022/03/03 00:30:06;;;;;;;29.42;12.15;;;;;;;1.78;49.16;92643.31;4994163;28;20056;-90
2022/03/03 00:32:55;;;;;;;32.05;12.43;;;;;;;2.30;49.03;92704.47;4978988;28;20097;-89
2022/03/03 00:38:30;;;;;;;26.75;11.88;;;;;;;1.82;49.67;92649.59;4995971;28;20042;-89
2022/03/03 00:41:21;;;;;;;;;;;;;;;;;;;;;
2022/03/03 00:44:07;;;;;;;29.27;12.50;;;;;;;1.69;48.89;92629.19;4993842;28;20038;-89
2022/03/03 00:47:13;;;;;;;33.40;12.95;;;;;;;1.73;48.55;92637.25;4978439;28;20042;-89
2022/03/03 00:50:03;;;;;;;36.38;12.50;;;;;;;1.78;48.53;92645.91;4993445;28;20053;-89
2022/03/03 00:53:23;;;;;;;27.80;12.13;;;;;;;1.66;48.18;92622.66;4981725;28;20054;-89
2022/03/03 00:56:28;;;;;;;30.17;11.77;;;;;;;2.18;48.48;92696.75;4977654;28;20129;-89
2022/03/03 00:59:26;;;;;;;27.92;12.02;;;;;;;2.00;48.40;92673.66;4993588;28;20065;-89
2022/03/03 01:02:14;;;;;;;29.63;12.18;;;;;;;2.05;48.54;92681.53;4981353;28;20799;-89
2022/03/03 01:05:03;;;;;;;30.45;12.82;;;;;;;1.71;48.21;92629.72;4979550;28;20052;-89
2022/03/03 01:08:03;;;;;;;29.42;12.80;;;;;;;1.69;48.17;92629.19;5008508;28;20038;-88
2022/03/03 01:16:59;;;;;;;27.95;12.80;;;;;;;1.83;49.25;92640.06;5011113;28;20042;-89
2022/03/03 01:19:42;;;;;;;;;;;;;;;;;;;;;
2022/03/03 01:22:20;;;;;;;30.45;12.30;;;;;;;1.76;49.53;92632.44;4993309;28;20046;-89
2022/03/03 01:24:57;;;;;;;;;;;;;;;;;;;;;
2022/03/03 01:27:52;;;;;;;;;;;;;;;;;;;;;
2022/03/03 01:30:48;;;;;;;;;;;;;;;;;;;;;
2022/03/03 01:33:53;;;;;;;;;;;;;;;;;;;;;
2022/03/03 01:37:13;;;;;;;;;;;;;;;;;;;;;
2022/03/03 01:39:54;;;;;;;;;;;;;;;;;;;;;
2022/03/03 01:42:40;;;;;;;33.92;12.27;;;;;;;1.77;48.67;92634.00;4993743;28;20091;-90
2022/03/03 01:45:07;;;;;;;32.75;11.70;;;;;;;1.86;48.67;92640.34;4975349;28;20557;-90
2022/03/03 01:47:42;;;;;;;;;;;;;;;;;;;;;
2022/03/03 01:50:42;;;;;;;31.95;12.40;;;;;;;1.78;49.96;92620.09;4993150;28;20062;-89
2022/03/03 01:53:23;;;;;;;30.95;12.10;;;;;;;1.82;49.98;92639.28;4993405;28;20104;-89
2022/03/03 01:56:22;;;;;;;;;;;;;;;;;;;;;
2022/03/03 01:59:12;;;;;;;29.35;12.88;;;;;;;1.42;49.90;92580.66;4993421;28;20050;-89
2022/03/03 02:02:05;;;;;;;30.08;12.85;;;;;;;1.35;50.00;92574.06;4992668;28;20042;-89
2022/03/03 02:10:58;;;;;;;29.52;12.50;;;;;;;1.49;50.59;92626.19;4995636;28;20051;-89
2022/03/03 02:13:44;;;;;;;;;;;;;;;;;;;;;
2022/03/03 02:16:38;;;;;;;28.98;12.27;;;;;;;1.40;50.19;92634.28;4979026;28;20149;-89
2022/03/03 02:19:17;;;;;;;30.10;12.45;;;;;;;0.93;50.24;92577.56;4976254;28;20189;-88
2022/03/03 02:21:55;;;;;;;30.60;13.60;;;;;;;0.95;50.00;92588.44;4976472;28;20034;-89
2022/03/03 02:24:46;;;;;;;;;;;;;;;;;;;;;
2022/03/03 02:27:15;;;;;;;27.42;12.80;;;;;;;0.54;50.35;92554.03;5007838;28;20073;-89
2022/03/03 02:30:08;;;;;;;31.02;13.73;;;;;;;0.57;50.70;92565.69;4993336;28;20038;-90
2022/03/03 02:33:01;;;;;;;33.25;13.10;;;;;;;0.86;50.96;92612.19;4992424;28;20555;-89
2022/03/03 02:36:05;;;;;;;31.40;13.15;;;;;;;0.32;51.16;92542.72;4992073;28;20038;-89
2022/03/03 02:39:08;;;;;;;33.90;13.88;;;;;;;0.39;50.90;92558.84;4976894;28;20046;-89
2022/03/03 02:41:57;;;;;;;31.70;12.80;;;;;;;0.19;51.41;92543.69;4955193;28;20053;-89
2022/03/03 02:44:38;;;;;;;28.20;12.57;;;;;;;0.35;51.19;92575.72;4987006;28;20043;-89
2022/03/03 02:47:19;;;;;;;;;;;;;;;;;;;;;
2022/03/03 02:50:03;;;;;;;31.23;12.48;;;;;;;-0.02;51.36;92550.13;4988242;28;20042;-90
2022/03/03 02:52:58;;;;;;;;;;;;;;;;;;;;;
2022/03/03 02:55:52;;;;;;;30.08;12.90;;;;;;;0.27;51.79;92606.94;4972525;28;20135;-89
2022/03/03 02:58:23;;;;;;;28.17;12.70;;;;;;;-0.21;52.53;92542.44;5004036;28;20042;-88
2022/03/03 03:01:40;;;;;;;36.28;12.93;;;;;;;0.05;52.77;92586.84;4973253;28;20043;-89
2022/03/03 03:10:49;;;;;;;32.13;13.25;;;;;;;-0.39;52.36;92521.91;4990697;28;20049;-90
2022/03/03 03:13:24;;;;;;;34.30;12.18;;;;;;;-0.41;52.75;92523.91;4990463;28;20100;-91
2022/03/03 03:16:19;;;;;;;29.90;12.52;;;;;;;-0.06;52.54;92569.59;4991350;28;20026;-89
2022/03/03 03:19:27;;;;;;;26.65;11.68;;;;;;;-0.40;52.88;92522.16;4975353;28;20593;-89
2022/03/03 03:22:22;;;;;;;33.97;12.75;;;;;;;-0.24;53.44;92553.19;4974847;28;20038;-89
2022/03/03 03:25:20;;;;;;;28.75;12.70;;;;;;;-0.58;52.89;92505.75;4989351;28;20130;-89
2022/03/03 03:28:06;;;;;;;;;;;;;;;;;;;;;
2022/03/03 03:30:55;;;;;;;;;;;;;;;;;;;;;
2022/03/03 03:33:52;;;;;;;33.88;13.18;;;;;;;-0.49;53.57;92525.00;4979254;28;20046;-89
2022/03/03 03:36:44;;;;;;;36.97;12.50;;;;;;;-0.47;53.42;92530.72;4970800;28;20039;-90
2022/03/03 03:39:14;;;;;;;31.80;11.57;;;;;;;-0.69;53.82;92501.34;4964834;28;20034;-89
2022/03/03 03:41:47;;;;;;;32.08;13.02;;;;;;;-0.75;53.82;92490.13;4974048;28;20047;-90
2022/03/03 03:45:01;;;;;;;25.92;11.52;;;;;;;-0.65;54.10;92515.34;4961036;28;20054;-90
2022/03/03 03:47:54;;;;;;;29.70;12.38;;;;;;;-0.80;54.51;92496.94;4963709;28;20042;-89
2022/03/03 03:50:28;;;;;;;29.63;12.63;;;;;;;-0.81;54.59;92501.28;4978185;28;20137;-89
2022/03/03 03:53:15;;;;;;;30.63;11.55;;;;;;;-0.80;54.36;92502.84;4978648;28;20046;-89
2022/03/03 03:56:01;;;;;;;29.42;11.95;;;;;;;-0.88;54.35;92492.84;4979578;28;20073;-89
2022/03/03 04:01:39;;;;;;;36.55;13.02;;;;;;;-0.75;54.72;92513.25;4994398;28;20050;-90
2022/03/03 04:04:56;;;;;;;38.63;13.50;;;;;;;-0.96;55.18;92485.44;4993110;28;20415;-89
2022/03/03 04:07:27;;;;;;;38.67;11.98;;;;;;;-0.90;55.40;92502.56;4993700;28;20047;-90
2022/03/03 04:10:42;;;;;;;28.27;12.60;;;;;;;-0.96;55.22;92488.78;4993441;28;20064;-89
2022/03/03 04:13:16;;;;;;;21.95;10.85;;;;;;;-1.03;55.66;92482.19;4976512;28;20069;-90
2022/03/03 04:16:00;;;;;;;29.58;11.93;;;;;;;-1.02;55.88;92483.72;4974473;28;20065;-89
2022/03/03 04:18:36;;;;;;;28.45;10.88;;;;;;;-1.09;56.06;92464.03;4974191;28;20038;-89
2022/03/03 04:21:20;;;;;;;29.75;12.20;;;;;;;-1.12;56.62;92459.34;4977597;28;20043;-89
2022/03/03 04:24:06;;;;;;;26.75;11.50;;;;;;;-1.11;57.04;92471.16;4989839;28;20380;-89
2022/03/03 04:27:00;;;;;;;;;;;;;;;;;;;;;
2022/03/03 04:29:38;;;;;;;27.17;12.27;;;;;;;-0.70;57.19;92528.84;4964590;28;20039;-89
2022/03/03 04:32:57;;;;;;;29.92;11.30;;;;;;;-0.81;57.31;92516.72;4974483;28;20089;-89
2022/03/03 04:35:58;;;;;;;27.25;11.55;;;;;;;-1.28;57.36;92431.66;4990547;28;20049;-89
2022/03/03 04:39:05;;;;;;;26.73;11.13;;;;;;;-1.30;57.31;92437.00;4977635;28;20109;-89
2022/03/03 04:41:44;;;;;;;26.00;11.10;;;;;;;-1.11;57.12;92471.16;4993923;28;20492;-89
2022/03/03 04:44:43;;;;;;;30.63;12.48;;;;;;;-0.87;56.44;92499.56;4979392;28;20039;-90
2022/03/03 04:47:38;;;;;;;30.42;11.65;;;;;;;-1.24;56.35;92450.75;4994220;28;20050;-90
2022/03/03 04:50:38;;;;;;;;;;;;;;;;;;;;;
2022/03/03 04:53:24;;;;;;;26.95;11.00;;;;;;;-1.22;57.04;92440.28;4994700;28;20042;-90
2022/03/03 04:56:30;;;;;;;27.65;11.32;;;;;;;-1.18;56.94;92447.34;4979089;28;20042;-89
2022/03/03 04:59:06;;;;;;;28.83;10.77;;;;;;;-1.35;56.76;92438.63;4993113;28;20050;-89
2022/03/03 05:01:53;;;;;;;26.77;11.68;;;;;;;-0.96;56.79;92500.88;4993817;28;20484;-89
2022/03/03 05:04:33;;;;;;;22.50;9.98;;;;;;;-1.06;57.30;92491.88;4978246;28;20038;-88
2022/03/03 05:07:03;;;;;;;37.33;13.60;;;;;;;-1.32;56.98;92458.78;4979256;28;20458;-89
2022/03/03 05:10:07;;;;;;;27.20;11.60;;;;;;;-1.12;57.69;92484.25;4978656;28;20488;-89
2022/03/03 05:12:40;;;;;;;;;;;;;;;-0.98;57.52;92508.78;4980343;28;20034;-89
2022/03/03 05:15:14;;;;;;;22.65;10.25;;;;;;;-1.19;56.61;92480.94;4977321;28;19960;-90
2022/03/03 05:18:17;;;;;;;;;;;;;;;;;;;;;
2022/03/03 05:23:44;;;;;;;31.02;12.13;;;;;;;-1.40;56.67;92435.94;4986308;28;20071;-89
2022/03/03 05:26:28;;;;;;;;;;;;;;;;;;;;;
2022/03/03 05:29:27;;;;;;;;;;;;;;;;;;;;;
2022/03/03 05:32:05;;;;;;;29.55;11.70;;;;;;;-1.41;56.40;92431.81;4981150;28;20039;-89
2022/03/03 05:34:39;;;;;;;29.23;11.48;;;;;;;-1.46;56.64;92422.19;4989165;28;20485;-89
2022/03/03 05:37:23;;;;;;;;;;;;;;;;;;;;;
2022/03/03 05:40:02;;;;;;;30.20;11.55;;;;;;;-1.58;56.71;92400.75;4990535;28;20137;-88
2022/03/03 05:42:49;;;;;;;34.13;10.45;;;;;;;-1.54;56.69;92410.41;4989453;28;20264;-87
2022/03/03 05:45:18;;;;;;;25.17;10.77;;;;;;;-1.57;56.90;92415.19;4993298;28;20038;-87
2022/03/03 05:47:58;;;;;;;24.60;11.52;;;;;;;-1.28;57.14;92457.34;4986640;28;20062;-87
2022/03/03 05:50:33;;;;;;;30.75;11.43;;;;;;;-1.20;56.98;92469.88;4968730;28;20046;-87
2022/03/03 05:53:20;;;;;;;31.88;11.13;;;;;;;-1.52;56.62;92423.03;4982330;28;20046;-86
2022/03/03 05:56:19;;;;;;;30.80;12.00;;;;;;;-1.60;57.21;92411.28;4997605;28;20390;-89
2022/03/03 06:01:52;;;;;;;28.92;11.68;;;;;;;-1.25;57.17;92464.63;4989573;28;20031;-87
2022/03/03 06:04:26;;;;;;;31.55;11.80;;;;;;;-1.40;57.08;92446.97;4990234;28;20117;-88
2022/03/03 06:07:34;;;;;;;30.95;12.02;;;;;;;-1.38;57.64;92444.22;4982787;28;20046;-87
2022/03/03 06:10:21;;;;;;;29.23;11.20;;;;;;;-1.49;57.17;92428.53;4975930;28;20056;-86
2022/03/03 06:13:20;;;;;;;31.65;12.23;;;;;;;-0.97;57.15;92502.63;4988008;28;20042;-87
2022/03/03 06:15:58;;;;;;;25.25;11.77;;;;;;;-0.25;55.30;92505.31;4987760;28;20043;-87
2022/03/03 06:18:57;;;;;;;;;;;;;;;;;;;;;
2022/03/03 06:21:44;;;;;;;29.15;12.30;;;;;;;2.96;46.82;92474.69;4972051;28;20035;-88
2022/03/03 06:24:48;;;;;;;27.73;11.82;;;;;;;3.99;43.49;92435.16;4971079;28;20524;-87
2022/03/03 06:27:32;;;;;;;27.65;11.75;;;;;;;5.47;40.85;92427.41;4970725;28;20064;-88
2022/03/03 06:30:06;;;;;;;29.25;11.63;;;;;;;6.57;38.10;92428.81;4955762;28;20074;-86
2022/03/03 06:32:44;;;;;;;28.60;11.85;;;;;;;7.89;35.81;92470.28;4972458;28;20089;-87
2022/03/03 06:35:29;;;;;;;;;;;;;;;;;;;;;
2022/03/03 06:41:18;;;;;;;;;;;;;;;10.82;31.18;92490.41;4972581;28;20039;-87
2022/03/03 06:43:54;;;;;;;26.65;11.75;;;;;;;11.33;29.76;92461.81;4971968;28;20363;-88
2022/03/03 06:46:28;;;;;;;27.70;13.10;;;;;;;12.01;28.38;92428.72;4972623;28;20479;-87
2022/03/03 06:49:05;;;;;;;24.80;12.75;;;;;;;12.95;27.04;92444.66;4972743;28;20043;-86
2022/03/03 06:51:42;;;;;;;29.23;12.82;;;;;;;13.89;25.08;92466.38;4972453;28;20149;-86
2022/03/03 06:54:21;;;;;;;29.60;13.02;;;;;;;14.42;24.36;92433.00;4972677;28;20037;-87
2022/03/03 06:56:52;;;;;;;34.28;14.13;;;;;;;15.38;23.32;92487.13;4987411;28;20053;-86
2022/03/03 06:59:23;;;;;;;30.63;13.80;;;;;;;15.87;22.57;92489.44;4970798;28;20082;-86
2022/03/03 07:01:52;;;;;;;28.52;13.25;;;;;;;16.40;22.70;92451.06;4971410;28;20047;-86
2022/03/03 07:04:22;;;;;;;33.65;14.48;;;;;;;16.74;22.23;92432.59;4972180;28;20033;-87
2022/03/03 07:06:49;;;;;;;31.75;14.63;;;;;;;17.46;21.29;92430.47;4970898;28;20050;-87
2022/03/03 07:09:23;;;;;;;33.08;14.57;;;;;;;17.34;20.56;92451.59;4970986;28;20506;-89
2022/03/03 07:12:00;;;;;;;31.90;13.70;;;;;;;18.21;20.04;92459.25;4972844;28;20117;-86
2022/03/03 07:14:29;;;;;;;31.20;14.45;;;;;;;18.66;19.31;92446.91;4991065;28;20039;-87
2022/03/03 07:17:03;;;;;;;29.95;13.80;;;;;;;19.08;18.97;92433.28;4958205;28;20045;-87
2022/03/03 07:19:46;;;;;;;28.58;14.25;;;;;;;19.51;18.08;92459.00;4990228;28;20035;-86
2022/03/03 07:22:26;;;;;;;32.35;14.43;;;;;;;19.10;18.82;92423.09;4974862;28;20051;-87
2022/03/03 07:25:00;;;;;;;30.60;14.57;;;;;;;19.87;18.45;92445.84;4958333;28;20043;-86
2022/03/03 07:27:46;;;;;;;29.58;15.60;;;;;;;20.85;17.41;92431.59;4974349;28;20039;-87
2022/03/03 07:30:15;;;;;;;33.60;15.35;;;;;;;22.14;16.89;92459.66;4974329;28;20495;-86
2022/03/03 07:33:06;;;;;;;30.08;15.30;;;;;;;22.28;16.25;92422.56;4975478;28;20050;-85
2022/03/03 07:35:39;;;;;;;28.02;15.88;;;;;;;22.13;15.65;92410.88;4989793;28;20031;-87
2022/03/03 07:38:09;;;;;;;;;;;;;;;22.44;15.26;92467.72;4974301;28;20046;-86
2022/03/03 07:40:41;;;;;;;26.75;14.80;;;;;;;22.08;15.58;92413.88;4957856;28;19913;-89
2022/03/03 07:43:06;;;;;;;26.90;14.65;;;;;;;22.12;15.57;92406.69;4976878;28;20038;-86
2022/03/03 07:45:38;;;;;;;29.95;14.88;;;;;;;20.86;16.72;92448.31;4977998;28;20050;-85
2022/03/03 07:48:06;;;;;;;31.88;14.98;;;;;;;18.82;18.83;92442.44;4995174;28;20507;-86
2022/03/03 07:50:40;;;;;;;31.05;14.68;;;;;;;15.97;21.15;92446.84;4992742;28;20038;-86
2022/03/03 07:53:10;;;;;;;28.10;14.95;;;;;;;14.47;23.75;92454.69;4992896;28;20042;-86
2022/03/03 07:55:48;;;;;;;35.45;14.98;;;;;;;12.77;25.82;92470.84;4993113;28;20042;-85
2022/03/03 07:58:18;;;;;;;30.13;14.68;;;;;;;11.03;28.15;92437.69;4993143;28;20069;-85
2022/03/03 08:00:48;;;;;;;30.95;15.32;;;;;;;10.08;30.17;92430.03;4992909;28;20026;-85
2022/03/03 08:03:22;;;;;;;29.55;14.85;;;;;;;9.52;30.46;92434.16;4993418;28;20042;-85
2022/03/03 08:05:52;;;;;;;34.78;15.00;;;;;;;9.78;31.79;92484.28;4994098;28;20084;-85
2022/03/03 08:08:22;;;;;;;33.58;14.98;;;;;;;10.11;31.20;92471.31;4992717;28;20081;-88
2022/03/03 08:10:48;;;;;;;31.63;14.63;;;;;;;9.84;31.05;92486.81;4976959;28;20050;-85
2022/03/03 08:13:16;;;;;;;31.80;14.35;;;;;;;9.57;31.24;92490.84;4976567;28;20137;-86
2022/03/03 08:15:43;;;;;;;32.80;15.07;;;;;;;9.15;32.51;92508.75;4994067;28;20542;-85
2022/03/03 08:18:10;;;;;;;32.15;13.95;;;;;;;9.26;31.75;92498.22;4977345;28;20125;-85
2022/03/03 08:20:38;;;;;;;31.02;14.25;;;;;;;9.55;32.10;92498.16;4976907;28;20039;-85
2022/03/03 08:23:04;;;;;;;29.38;13.32;;;;;;;8.93;32.74;92490.94;4975919;28;20032;-84
2022/03/03 08:25:30;;;;;;;32.13;14.50;;;;;;;9.02;32.34;92485.13;4992564;28;20046;-85
2022/03/03 08:27:56;;;;;;;33.67;14.93;;;;;;;8.46;33.12;92502.03;4992270;28;20077;-84
2022/03/03 08:30:22;;;;;;;28.05;14.05;;;;;;;8.93;33.27;92485.72;4992405;28;20078;-88
2022/03/03 08:33:08;;;;;;;31.92;14.43;;;;;;;8.71;33.18;92506.28;4994194;28;20026;-85
2022/03/03 08:35:39;;;;;;;30.13;13.32;;;;;;;7.85;34.49;92488.28;4993948;28;20145;-85
2022/03/03 08:38:32;;;;;;;34.13;14.18;;;;;;;7.64;34.43;92507.69;4993113;28;20056;-85
2022/03/03 08:40:59;;;;;;;;;;;;;;;7.06;35.75;92508.09;4995194;28;20069;-85
2022/03/03 08:43:27;;;;;;;32.92;13.30;;;;;;;7.04;36.14;92507.56;5000641;28;19917;-85
2022/03/03 08:46:02;;;;;;;30.65;13.45;;;;;;;7.24;36.39;92509.38;5000237;28;20030;-84
2022/03/03 08:48:30;;;;;;;37.08;14.63;;;;;;;6.67;37.20;92509.44;4972526;28;20054;-84
2022/03/03 08:50:58;;;;;;;28.20;12.38;;;;;;;6.19;37.79;92515.91;4982764;28;20045;-88
2022/03/03 08:53:23;;;;;;;32.22;13.50;;;;;;;6.58;37.78;92523.25;4992962;28;20149;-89
2022/03/03 08:55:49;;;;;;;34.88;13.85;;;;;;;6.99;37.27;92518.00;4974964;28;20523;-85
2022/03/03 08:58:14;;;;;;;31.65;13.02;;;;;;;6.80;37.09;92513.34;4991931;28;20034;-85
2022/03/03 09:00:41;;;;;;;35.65;13.52;;;;;;;6.76;37.05;92520.09;4994353;28;20042;-85
2022/03/03 09:03:07;;;;;;;31.88;14.23;;;;;;;7.37;35.90;92513.25;4976572;28;20081;-84
2022/03/03 09:05:32;;;;;;;27.50;13.40;;;;;;;7.45;34.90;92503.06;4993587;28;20447;-85
2022/03/03 09:07:58;;;;;;;33.10;13.68;;;;;;;7.52;34.88;92508.00;4993363;28;20446;-85
2022/03/03 09:10:24;;;;;;;34.33;14.10;;;;;;;7.64;35.55;92518.88;5008594;28;20488;-90
2022/03/03 09:12:51;;;;;;;28.85;13.43;;;;;;;7.02;37.49;92500.03;4991942;28;20095;-84
2022/03/03 09:15:16;;;;;;;37.10;15.18;;;;;;;7.40;38.43;92512.69;5000990;28;20043;-85
2022/03/03 09:17:42;;;;;;;33.28;14.13;;;;;;;6.34;39.04;92450.16;4976836;28;20045;-84
2022/03/03 09:20:14;;;;;;;37.97;14.80;;;;;;;7.26;39.27;92505.44;4973178;28;20055;-85
2022/03/03 09:22:46;;;;;;;34.40;14.07;;;;;;;6.92;37.96;92501.88;4956635;28;20035;-85
2022/03/03 09:25:12;;;;;;;30.90;13.60;;;;;;;6.82;38.26;92502.66;4983008;28;20073;-85
2022/03/03 09:27:38;;;;;;;31.02;12.57;;;;;;;6.71;37.97;92506.31;4987938;28;20128;-85
2022/03/03 09:30:05;;;;;;;39.92;14.60;;;;;;;6.67;38.68;92506.84;4992615;28;20045;-87
2022/03/03 09:32:32;;;;;;;34.63;15.73;;;;;;;6.47;38.19;92492.03;4991731;28;20054;-88
2022/03/03 09:34:58;;;;;;;32.47;15.35;;;;;;;6.72;38.33;92497.47;4991104;28;20049;-85
2022/03/03 09:37:23;;;;;;;32.72;14.50;;;;;;;6.84;38.04;92496.16;4991301;28;20038;-85
2022/03/03 09:39:50;;;;;;;33.03;14.93;;;;;;;6.78;39.05;92504.25;5006891;28;20062;-85
2022/03/03 09:42:16;;;;;;;32.58;14.13;;;;;;;6.42;39.36;92481.63;4971357;28;20065;-85
2022/03/03 09:44:42;;;;;;;31.42;13.27;;;;;;;6.41;39.26;92472.25;4975246;28;20035;-86
2022/03/03 09:47:11;;;;;;;33.38;15.45;;;;;;;6.39;38.95;92489.16;4992323;28;20032;-86
2022/03/03 09:49:36;;;;;;;34.55;15.07;;;;;;;6.45;38.88;92483.69;4992284;28;20042;-86
2022/03/03 09:52:11;;;;;;;29.98;13.07;;;;;;;7.19;38.22;92484.13;4976110;28;20117;-86
2022/03/03 09:54:37;;;;;;;34.58;15.50;;;;;;;7.59;37.44;92484.22;4992934;28;20049;-87
2022/03/03 09:57:03;;;;;;;36.60;15.05;;;;;;;7.39;37.09;92465.06;4991852;28;20046;-86
2022/03/03 09:59:28;;;;;;;35.47;15.30;;;;;;;6.89;37.31;92484.97;4991957;28;20093;-87
2022/03/03 10:02:02;;;;;;;31.77;15.80;;;;;;;6.86;38.56;92467.28;4991838;28;20034;-88
2022/03/03 10:04:28;;;;;;;36.08;15.77;;;;;;;7.25;37.88;92459.63;5008532;28;20050;-90
2022/03/03 10:06:53;;;;;;;40.75;16.13;;;;;;;7.63;36.53;92480.06;4975823;28;20396;-86
2022/03/03 10:09:19;;;;;;;31.73;14.40;;;;;;;7.97;36.26;92458.50;4971957;28;20134;-87
2022/03/03 10:11:47;;;;;;;34.65;14.75;;;;;;;7.59;36.24;92452.97;5004447;28;20063;-87
2022/03/03 10:14:14;;;;;;;38.80;15.07;;;;;;;8.03;35.35;92467.88;4981142;28;20077;-88
2022/03/03 10:16:47;;;;;;;37.13;17.20;;;;;;;8.01;35.33;92457.69;4980216;28;20039;-87
2022/03/03 10:19:13;;;;;;;37.25;15.70;;;;;;;7.25;37.02;92467.44;4973633;28;20052;-88
2022/03/03 10:21:41;;;;;;;40.35;17.02;;;;;;;7.39;37.62;92470.25;4974089;28;20487;-87
2022/03/03 10:24:21;;;;;;;32.72;13.93;;;;;;;7.59;36.64;92456.38;4991163;28;20073;-87
2022/03/03 10:26:58;;;;;;;39.75;16.77;;;;;;;7.11;38.13;92437.78;4994437;28;20142;-88
2022/03/03 10:29:25;;;;;;;34.55;13.10;;;;;;;6.73;37.82;92460.78;4994810;28;20056;-87
2022/03/03 10:31:52;;;;;;;34.85;16.50;;;;;;;7.12;38.58;92455.00;5001452;28;20034;-88
2022/03/03 10:34:27;;;;;;;39.42;16.00;;;;;;;7.89;37.28;92437.19;4973406;28;20122;-88
2022/03/03 10:37:00;;;;;;;47.47;16.50;;;;;;;8.24;35.91;92440.63;4972599;28;20039;-86
2022/03/03 10:39:44;;;;;;;38.92;17.05;;;;;;;8.51;36.45;92411.47;4978341;28;20133;-87
2022/03/03 10:42:21;;;;;;;38.10;17.05;;;;;;;8.77;36.52;92460.03;4991555;28;20046;-86
2022/03/03 10:44:48;;;;;;;27.98;13.50;;;;;;;8.52;35.86;92436.50;4991952;28;20045;-86
2022/03/03 10:47:16;;;;;;;26.85;12.77;;;;;;;7.96;35.77;92451.75;4995333;28;20574;-87
2022/03/03 10:49:48;;;;;;;34.80;14.68;;;;;;;7.63;36.85;92438.38;4991049;28;20177;-88
2022/03/03 10:52:14;;;;;;;38.13;16.90;;;;;;;8.34;37.34;92455.41;4965344;28;20117;-88
2022/03/03 10:54:56;;;;;;;35.50;15.57;;;;;;;8.50;36.12;92462.06;4995242;28;20060;-87
2022/03/03 10:57:41;;;;;;;31.73;15.13;;;;;;;8.10;36.74;92443.03;4996867;28;20499;-88
2022/03/03 11:00:23;;;;;;;34.13;15.13;;;;;;;8.63;36.49;92449.47;4992043;28;20321;-87
2022/03/03 11:02:57;;;;;;;33.45;15.60;;;;;;;8.73;35.52;92438.91;4976056;28;20558;-87
2022/03/03 11:05:25;;;;;;;34.00;15.40;;;;;;;8.48;36.69;92443.31;4987726;28;20046;-87
2022/03/03 11:07:52;;;;;;;37.70;16.92;;;;;;;8.92;35.61;92447.63;4975487;28;20097;-88
2022/03/03 11:10:20;;;;;;;37.08;15.88;;;;;;;8.57;35.90;92440.13;4976824;28;20054;-87
2022/03/03 11:12:47;;;;;;;35.85;14.73;;;;;;;8.45;35.92;92417.78;4987742;28;20125;-88
2022/03/03 11:15:15;;;;;;;43.17;17.60;;;;;;;8.86;36.44;92442.72;5011337;28;20096;-87
2022/03/03 11:17:41;;;;;;;38.38;16.17;;;;;;;9.31;35.60;92411.97;4995145;28;20549;-87
2022/03/03 11:20:11;;;;;;;34.10;16.10;;;;;;;9.05;36.13;92411.44;4993814;28;20113;-86
2022/03/03 11:22:38;;;;;;;33.03;16.23;;;;;;;9.38;35.96;92428.06;4993721;28;20097;-88
2022/03/03 11:25:16;;;;;;;38.88;18.00;;;;;;;9.16;35.98;92415.50;5013319;28;20062;-87
2022/03/03 11:27:44;;;;;;;40.17;17.25;;;;;;;9.26;36.21;92423.25;5009837;28;20038;-86
2022/03/03 11:30:15;;;;;;;30.25;14.43;;;;;;;8.98;36.86;92421.47;4972093;28;20043;-86
2022/03/03 11:32:41;;;;;;;40.03;17.20;;;;;;;8.75;36.73;92398.44;4982065;28;20117;-86
2022/03/03 11:35:09;;;;;;;37.40;16.38;;;;;;;9.18;36.02;92403.72;4994437;28;20042;-86
2022/03/03 11:37:40;;;;;;;35.33;14.48;;;;;;;9.13;36.96;92409.00;4994183;28;20037;-88
2022/03/03 11:40:06;;;;;;;39.95;16.65;;;;;;;9.58;36.03;92396.44;5009884;28;20038;-88
2022/03/03 11:42:36;;;;;;;47.67;15.60;;;;;;;9.02;36.61;92399.75;4992401;28;20026;-88
2022/03/03 11:45:08;;;;;;;38.00;16.40;;;;;;;8.95;36.58;92396.69;4992755;28;20041;-87
2022/03/03 11:47:39;;;;;;;41.47;17.83;;;;;;;9.27;36.10;92385.59;4967009;28;20094;-87
2022/03/03 11:50:25;;;;;;;41.88;16.52;;;;;;;9.94;34.99;92389.97;4990444;28;20121;-88
2022/03/03 11:52:54;;;;;;;39.88;17.60;;;;;;;9.43;35.07;92377.59;4990814;28;20042;-88
2022/03/03 11:55:29;;;;;;;38.20;17.10;;;;;;;10.11;34.50;92374.53;4993021;28;20039;-87
2022/03/03 11:58:00;;;;;;;36.33;16.13;;;;;;;10.03;34.64;92377.78;4961007;28;20041;-87
2022/03/03 12:00:26;;;;;;;36.53;17.23;;;;;;;9.80;34.06;92372.38;4990832;28;20048;-87
2022/03/03 12:02:59;;;;;;;34.72;15.98;;;;;;;9.67;35.02;92370.47;5000038;28;20042;-89
2022/03/03 12:05:27;;;;;;;22.52;9.00;;;;;;;9.16;35.25;92363.28;5014475;28;20117;-88
2022/03/03 12:08:05;;;;;;;40.83;16.67;;;;;;;9.61;34.45;92353.28;4994107;28;20041;-90
2022/03/03 12:10:33;;;;;;;31.90;14.93;;;;;;;9.53;34.60;92353.94;4985400;28;20077;-87
2022/03/03 12:13:24;;;;;;;34.25;15.25;;;;;;;9.32;34.89;92341.16;4993867;28;20723;-86
2022/03/03 12:16:22;;;;;;;33.35;15.32;;;;;;;9.79;34.69;92339.47;4962096;28;20121;-88
2022/03/03 12:19:04;;;;;;;31.05;14.00;;;;;;;9.84;34.41;92327.34;5002834;28;20049;-87
2022/03/03 12:21:33;;;;;;;31.90;13.33;;;;;;;8.89;36.07;92337.75;5011090;28;20136;-87
2022/03/03 12:24:14;;;;;;;32.83;15.50;;;;;;;9.30;36.21;92322.38;4985669;28;20030;-86
2022/03/03 12:26:52;;;;;;;38.13;14.43;;;;;;;9.67;35.51;92315.56;4974389;28;20031;-87
2022/03/03 12:29:50;;;;;;;35.10;15.07;;;;;;;10.02;35.79;92313.50;4990578;28;20062;-87
2022/03/03 12:32:37;;;;;;;33.35;14.07;;;;;;;9.85;36.40;92315.84;4993138;28;20380;-86
2022/03/03 12:35:12;;;;;;;30.92;15.00;;;;;;;9.79;37.37;92302.06;4977056;28;20101;-88
2022/03/03 12:38:02;;;;;;;37.95;14.70;;;;;;;9.92;37.91;92297.94;4993482;28;20046;-88
2022/03/03 12:40:31;;;;;;;34.70;15.05;;;;;;;9.87;38.48;92290.19;4985028;28;20062;-87
2022/03/03 12:42:58;;;;;;;29.38;14.75;;;;;;;10.00;39.11;92287.63;4958589;28;20034;-86
2022/03/03 12:45:24;;;;;;;32.13;15.07;;;;;;;9.43;39.63;92280.91;4957600;28;20046;-87
2022/03/03 12:47:53;;;;;;;36.13;15.40;;;;;;;9.71;39.67;92274.75;4957703;28;20039;-86
2022/03/03 12:50:27;;;;;;;27.33;14.02;;;;;;;10.19;38.29;92282.31;4961251;28;20122;-88
2022/03/03 12:53:13;;;;;;;28.52;13.48;;;;;;;9.66;39.35;92277.44;4976559;28;20043;-86
2022/03/03 12:55:44;;;;;;;30.63;13.23;;;;;;;9.66;38.65;92256.53;4974073;28;20038;-87
2022/03/03 12:58:15;;;;;;;30.70;13.15;;;;;;;9.67;40.58;92271.16;4976588;28;20047;-86
2022/03/03 13:00:42;;;;;;;38.15;15.48;;;;;;;9.53;40.78;92257.25;4984605;28;20066;-87
2022/03/03 13:03:08;;;;;;;27.45;14.10;;;;;;;10.03;39.95;92260.13;4958476;28;20039;-88
2022/03/03 13:05:47;;;;;;;19.73;11.45;;;;;;;9.58;40.14;92250.09;4980255;28;20088;-87
2022/03/03 13:08:34;;;;;;;34.20;16.23;;;;;;;9.89;39.71;92201.81;4989793;28;20380;-87
2022/03/03 13:11:05;;;;;;;29.30;15.55;;;;;;;9.84;39.74;92241.06;4984646;28;20342;-86
2022/03/03 13:13:44;;;;;;;34.13;15.80;;;;;;;9.86;39.58;92218.03;4994648;28;20030;-86
2022/03/03 13:16:12;;;;;;;36.42;16.80;;;;;;;9.29;40.65;92216.31;4988996;28;20034;-87
2022/03/03 13:18:40;;;;;;;35.60;15.32;;;;;;;9.34;41.81;92224.09;4989976;28;20106;-87
2022/03/03 13:21:09;;;;;;;32.03;14.82;;;;;;;9.60;41.31;92221.09;4973838;28;20125;-89
2022/03/03 13:23:40;;;;;;;29.48;13.48;;;;;;;9.49;41.25;92214.47;4989547;28;20061;-86
2022/03/03 13:26:45;;;;;;;33.78;16.73;;;;;;;9.89;40.70;92214.88;5006976;28;20030;-87
2022/03/03 13:29:21;;;;;;;28.48;14.68;;;;;;;9.96;40.94;92184.66;4957828;28;20050;-87